Terminal Aerodrome Forecast
Issued by NWS

Home | Current Version | Previous Version | Text Only | Print | Product List | Glossary On
Versions: 1 2 3 4 5 6 7 8 9 10 11 12 13 14 15 16 17 18 19 20 21 22 23 24 25 26 27 28 29 30 31 32 33 34 35 36
161
FTUS46 KPQR 161130
TAFONP
TAF
KONP 161130Z 1612/1712 VRB03KT 5SM BR SCT003
     FM161700 34008KT P6SM SCT040
     FM162000 34012G20KT P6SM SCT100
     FM170600 34007KT 5SM BR BKN020
     FM170900 VRB03KT 3SM BR OVC010=

USA.gov is the U.S. government's official web portal to all federal, state and local government web resources and services.